sensor_id;sensor_type;location;lat;lon;timestamp;P1;durP1;ratioP1;P2;durP2;ratioP2
41927;SDS011;27616;51.420;6.788;2023-02-08T00:01:16;16.37;;;8.37;;
41927;SDS011;27616;51.420;6.788;2023-02-08T00:03:44;16.13;;;7.97;;
41927;SDS011;27616;51.420;6.788;2023-02-08T00:06:10;18.93;;;7.90;;
41927;SDS011;27616;51.420;6.788;2023-02-08T00:08:36;18.67;;;8.47;;
41927;SDS011;27616;51.420;6.788;2023-02-08T00:11:03;14.67;;;7.93;;
41927;SDS011;27616;51.420;6.788;2023-02-08T00:13:30;17.70;;;8.27;;
41927;SDS011;27616;51.420;6.788;2023-02-08T00:15:56;17.07;;;7.83;;
41927;SDS011;27616;51.420;6.788;2023-02-08T00:18:22;17.13;;;7.90;;
41927;SDS011;27616;51.420;6.788;2023-02-08T00:20:48;19.77;;;9.07;;
41927;SDS011;27616;51.420;6.788;2023-02-08T00:23:14;19.73;;;8.03;;
41927;SDS011;27616;51.420;6.788;2023-02-08T00:25:40;22.37;;;9.47;;
41927;SDS011;27616;51.420;6.788;2023-02-08T00:28:08;18.23;;;9.03;;
41927;SDS011;27616;51.420;6.788;2023-02-08T00:30:37;16.43;;;7.80;;
41927;SDS011;27616;51.420;6.788;2023-02-08T00:33:02;22.90;;;8.13;;
41927;SDS011;27616;51.420;6.788;2023-02-08T00:35:29;17.40;;;7.90;;
41927;SDS011;27616;51.420;6.788;2023-02-08T00:37:55;15.87;;;7.47;;
41927;SDS011;27616;51.420;6.788;2023-02-08T00:40:21;21.83;;;7.80;;
41927;SDS011;27616;51.420;6.788;2023-02-08T00:42:48;19.93;;;8.23;;
41927;SDS011;27616;51.420;6.788;2023-02-08T00:45:14;15.70;;;7.03;;
41927;SDS011;27616;51.420;6.788;2023-02-08T00:47:39;18.23;;;6.80;;
41927;SDS011;27616;51.420;6.788;2023-02-08T00:50:05;18.73;;;7.07;;
41927;SDS011;27616;51.420;6.788;2023-02-08T00:52:31;19.07;;;7.60;;
41927;SDS011;27616;51.420;6.788;2023-02-08T00:54:57;14.40;;;6.83;;
41927;SDS011;27616;51.420;6.788;2023-02-08T00:57:23;17.27;;;6.67;;
41927;SDS011;27616;51.420;6.788;2023-02-08T00:59:49;15.60;;;7.13;;
41927;SDS011;27616;51.420;6.788;2023-02-08T01:02:15;16.57;;;6.83;;
41927;SDS011;27616;51.420;6.788;2023-02-08T01:04:40;18.20;;;7.03;;
41927;SDS011;27616;51.420;6.788;2023-02-08T01:07:06;14.50;;;6.73;;
41927;SDS011;27616;51.420;6.788;2023-02-08T01:09:32;17.40;;;6.83;;
41927;SDS011;27616;51.420;6.788;2023-02-08T01:11:58;18.07;;;7.70;;
41927;SDS011;27616;51.420;6.788;2023-02-08T01:14:24;14.90;;;6.10;;
41927;SDS011;27616;51.420;6.788;2023-02-08T01:16:50;18.83;;;6.67;;
41927;SDS011;27616;51.420;6.788;2023-02-08T01:19:17;13.67;;;6.97;;
41927;SDS011;27616;51.420;6.788;2023-02-08T01:21:43;15.37;;;6.60;;
41927;SDS011;27616;51.420;6.788;2023-02-08T01:24:09;13.60;;;6.50;;
41927;SDS011;27616;51.420;6.788;2023-02-08T01:26:36;14.67;;;6.50;;
41927;SDS011;27616;51.420;6.788;2023-02-08T01:29:04;18.97;;;6.57;;
41927;SDS011;27616;51.420;6.788;2023-02-08T01:31:31;23.03;;;6.80;;
41927;SDS011;27616;51.420;6.788;2023-02-08T01:33:59;17.73;;;6.90;;
41927;SDS011;27616;51.420;6.788;2023-02-08T01:36:26;15.90;;;6.63;;
41927;SDS011;27616;51.420;6.788;2023-02-08T01:38:53;19.33;;;6.83;;
41927;SDS011;27616;51.420;6.788;2023-02-08T01:41:20;13.53;;;6.57;;
41927;SDS011;27616;51.420;6.788;2023-02-08T01:46:25;17.73;;;7.63;;
41927;SDS011;27616;51.420;6.788;2023-02-08T01:48:51;15.37;;;7.13;;
41927;SDS011;27616;51.420;6.788;2023-02-08T01:51:21;12.80;;;5.50;;
41927;SDS011;27616;51.420;6.788;2023-02-08T01:53:49;14.82;;;7.28;;
41927;SDS011;27616;51.420;6.788;2023-02-08T01:56:23;16.58;;;5.95;;
41927;SDS011;27616;51.420;6.788;2023-02-08T01:58:56;18.13;;;6.33;;
41927;SDS011;27616;51.420;6.788;2023-02-08T02:01:25;16.80;;;5.85;;
41927;SDS011;27616;51.420;6.788;2023-02-08T02:03:54;17.52;;;6.35;;
41927;SDS011;27616;51.420;6.788;2023-02-08T02:06:24;17.20;;;6.30;;
41927;SDS011;27616;51.420;6.788;2023-02-08T02:09:00;12.43;;;6.00;;
41927;SDS011;27616;51.420;6.788;2023-02-08T02:11:36;14.57;;;6.07;;
41927;SDS011;27616;51.420;6.788;2023-02-08T02:14:03;16.43;;;6.53;;
41927;SDS011;27616;51.420;6.788;2023-02-08T02:16:30;19.43;;;6.50;;
41927;SDS011;27616;51.420;6.788;2023-02-08T02:18:56;15.70;;;7.17;;
41927;SDS011;27616;51.420;6.788;2023-02-08T02:21:26;13.90;;;6.30;;
41927;SDS011;27616;51.420;6.788;2023-02-08T02:24:17;14.73;;;6.30;;
41927;SDS011;27616;51.420;6.788;2023-02-08T02:27:24;12.80;;;6.20;;
41927;SDS011;27616;51.420;6.788;2023-02-08T02:41:30;14.70;;;6.80;;
41927;SDS011;27616;51.420;6.788;2023-02-08T02:44:24;14.20;;;6.83;;
41927;SDS011;27616;51.420;6.788;2023-02-08T02:50:10;15.43;;;7.13;;
41927;SDS011;27616;51.420;6.788;2023-02-08T02:52:50;15.03;;;7.10;;
41927;SDS011;27616;51.420;6.788;2023-02-08T02:55:28;18.73;;;7.77;;
41927;SDS011;27616;51.420;6.788;2023-02-08T02:57:58;14.30;;;7.17;;
41927;SDS011;27616;51.420;6.788;2023-02-08T03:00:25;19.23;;;7.53;;
41927;SDS011;27616;51.420;6.788;2023-02-08T03:02:52;16.17;;;7.57;;
41927;SDS011;27616;51.420;6.788;2023-02-08T03:05:19;14.00;;;7.20;;
41927;SDS011;27616;51.420;6.788;2023-02-08T03:13:25;16.23;;;8.37;;
41927;SDS011;27616;51.420;6.788;2023-02-08T03:18:36;16.33;;;7.10;;
41927;SDS011;27616;51.420;6.788;2023-02-08T03:21:16;19.77;;;7.80;;
41927;SDS011;27616;51.420;6.788;2023-02-08T03:31:17;19.67;;;8.60;;
41927;SDS011;27616;51.420;6.788;2023-02-08T03:33:51;14.40;;;7.53;;
41927;SDS011;27616;51.420;6.788;2023-02-08T03:36:24;14.60;;;7.73;;
41927;SDS011;27616;51.420;6.788;2023-02-08T03:38:57;18.07;;;9.03;;
41927;SDS011;27616;51.420;6.788;2023-02-08T03:41:27;14.13;;;7.67;;
41927;SDS011;27616;51.420;6.788;2023-02-08T03:44:08;14.63;;;7.70;;
41927;SDS011;27616;51.420;6.788;2023-02-08T03:46:49;19.87;;;9.20;;
41927;SDS011;27616;51.420;6.788;2023-02-08T03:49:22;18.83;;;8.77;;
41927;SDS011;27616;51.420;6.788;2023-02-08T03:51:53;19.47;;;8.30;;
41927;SDS011;27616;51.420;6.788;2023-02-08T03:59:26;17.90;;;9.43;;
41927;SDS011;27616;51.420;6.788;2023-02-08T04:02:00;20.90;;;9.70;;
41927;SDS011;27616;51.420;6.788;2023-02-08T04:04:28;20.17;;;10.10;;
41927;SDS011;27616;51.420;6.788;2023-02-08T04:06:58;19.60;;;9.33;;
41927;SDS011;27616;51.420;6.788;2023-02-08T04:09:24;20.03;;;10.27;;
41927;SDS011;27616;51.420;6.788;2023-02-08T04:11:49;19.97;;;9.87;;
41927;SDS011;27616;51.420;6.788;2023-02-08T04:14:16;23.43;;;10.57;;
41927;SDS011;27616;51.420;6.788;2023-02-08T04:16:41;24.07;;;10.13;;
41927;SDS011;27616;51.420;6.788;2023-02-08T04:19:07;21.40;;;9.27;;
41927;SDS011;27616;51.420;6.788;2023-02-08T04:21:33;20.63;;;9.43;;
41927;SDS011;27616;51.420;6.788;2023-02-08T04:23:59;20.73;;;9.97;;
41927;SDS011;27616;51.420;6.788;2023-02-08T04:26:25;21.83;;;10.10;;
41927;SDS011;27616;51.420;6.788;2023-02-08T04:28:51;19.30;;;8.70;;
41927;SDS011;27616;51.420;6.788;2023-02-08T04:31:17;19.23;;;9.37;;
41927;SDS011;27616;51.420;6.788;2023-02-08T04:33:42;20.87;;;9.77;;
41927;SDS011;27616;51.420;6.788;2023-02-08T04:36:08;18.83;;;9.63;;
41927;SDS011;27616;51.420;6.788;2023-02-08T04:38:34;21.80;;;9.37;;
41927;SDS011;27616;51.420;6.788;2023-02-08T04:41:00;19.70;;;9.40;;
41927;SDS011;27616;51.420;6.788;2023-02-08T04:43:26;20.43;;;9.90;;
41927;SDS011;27616;51.420;6.788;2023-02-08T04:45:52;19.53;;;9.53;;
41927;SDS011;27616;51.420;6.788;2023-02-08T04:48:18;21.27;;;10.30;;
41927;SDS011;27616;51.420;6.788;2023-02-08T04:50:44;21.03;;;10.00;;
41927;SDS011;27616;51.420;6.788;2023-02-08T04:53:10;21.53;;;10.40;;
41927;SDS011;27616;51.420;6.788;2023-02-08T04:55:36;21.30;;;10.13;;
41927;SDS011;27616;51.420;6.788;2023-02-08T04:58:02;21.63;;;10.97;;
41927;SDS011;27616;51.420;6.788;2023-02-08T05:00:28;20.83;;;10.00;;
41927;SDS011;27616;51.420;6.788;2023-02-08T05:02:54;22.17;;;10.93;;
41927;SDS011;27616;51.420;6.788;2023-02-08T05:05:22;21.20;;;10.20;;
41927;SDS011;27616;51.420;6.788;2023-02-08T05:07:49;18.97;;;9.67;;
41927;SDS011;27616;51.420;6.788;2023-02-08T05:10:14;25.57;;;11.10;;
41927;SDS011;27616;51.420;6.788;2023-02-08T05:12:40;22.83;;;10.97;;
41927;SDS011;27616;51.420;6.788;2023-02-08T05:15:06;22.67;;;10.27;;
41927;SDS011;27616;51.420;6.788;2023-02-08T05:17:32;20.13;;;10.00;;
41927;SDS011;27616;51.420;6.788;2023-02-08T05:19:57;21.40;;;9.87;;
41927;SDS011;27616;51.420;6.788;2023-02-08T05:22:23;21.80;;;10.73;;
41927;SDS011;27616;51.420;6.788;2023-02-08T05:24:49;23.27;;;10.77;;
41927;SDS011;27616;51.420;6.788;2023-02-08T05:27:15;21.53;;;10.33;;
41927;SDS011;27616;51.420;6.788;2023-02-08T05:29:40;25.50;;;10.73;;
41927;SDS011;27616;51.420;6.788;2023-02-08T05:32:08;21.33;;;10.20;;
41927;SDS011;27616;51.420;6.788;2023-02-08T05:34:33;24.20;;;10.07;;
41927;SDS011;27616;51.420;6.788;2023-02-08T05:37:00;24.70;;;10.57;;
41927;SDS011;27616;51.420;6.788;2023-02-08T05:39:26;23.60;;;11.03;;
41927;SDS011;27616;51.420;6.788;2023-02-08T05:41:52;24.83;;;11.33;;
41927;SDS011;27616;51.420;6.788;2023-02-08T05:44:18;22.50;;;11.37;;
41927;SDS011;27616;51.420;6.788;2023-02-08T05:46:43;23.03;;;10.87;;
41927;SDS011;27616;51.420;6.788;2023-02-08T05:49:09;22.03;;;11.10;;
41927;SDS011;27616;51.420;6.788;2023-02-08T05:51:35;22.33;;;11.03;;
41927;SDS011;27616;51.420;6.788;2023-02-08T05:54:00;23.87;;;11.07;;
41927;SDS011;27616;51.420;6.788;2023-02-08T05:56:26;25.03;;;11.63;;
41927;SDS011;27616;51.420;6.788;2023-02-08T05:58:52;24.67;;;11.30;;
41927;SDS011;27616;51.420;6.788;2023-02-08T06:01:18;25.57;;;10.87;;
41927;SDS011;27616;51.420;6.788;2023-02-08T06:03:45;28.93;;;11.07;;
41927;SDS011;27616;51.420;6.788;2023-02-08T06:06:10;22.63;;;10.43;;
41927;SDS011;27616;51.420;6.788;2023-02-08T06:08:36;21.60;;;10.40;;
41927;SDS011;27616;51.420;6.788;2023-02-08T06:11:03;26.20;;;11.43;;
41927;SDS011;27616;51.420;6.788;2023-02-08T06:13:29;23.57;;;10.97;;
41927;SDS011;27616;51.420;6.788;2023-02-08T06:15:55;21.63;;;9.60;;
41927;SDS011;27616;51.420;6.788;2023-02-08T06:18:21;22.23;;;10.10;;
41927;SDS011;27616;51.420;6.788;2023-02-08T06:20:47;21.23;;;10.07;;
41927;SDS011;27616;51.420;6.788;2023-02-08T06:23:16;20.03;;;9.80;;
41927;SDS011;27616;51.420;6.788;2023-02-08T06:25:41;21.17;;;9.80;;
41927;SDS011;27616;51.420;6.788;2023-02-08T06:28:07;25.50;;;11.50;;
41927;SDS011;27616;51.420;6.788;2023-02-08T06:30:35;22.50;;;11.03;;
41927;SDS011;27616;51.420;6.788;2023-02-08T06:33:01;21.70;;;10.57;;
41927;SDS011;27616;51.420;6.788;2023-02-08T06:35:27;22.17;;;10.87;;
41927;SDS011;27616;51.420;6.788;2023-02-08T06:37:53;23.43;;;11.10;;
41927;SDS011;27616;51.420;6.788;2023-02-08T06:40:19;24.30;;;11.53;;
41927;SDS011;27616;51.420;6.788;2023-02-08T06:42:45;24.67;;;11.10;;
41927;SDS011;27616;51.420;6.788;2023-02-08T06:45:12;24.70;;;10.47;;
41927;SDS011;27616;51.420;6.788;2023-02-08T06:47:37;24.97;;;11.37;;
41927;SDS011;27616;51.420;6.788;2023-02-08T06:50:03;24.57;;;12.07;;
41927;SDS011;27616;51.420;6.788;2023-02-08T06:52:30;33.43;;;12.40;;
41927;SDS011;27616;51.420;6.788;2023-02-08T06:54:56;25.83;;;12.07;;
41927;SDS011;27616;51.420;6.788;2023-02-08T06:57:22;25.53;;;12.83;;
41927;SDS011;27616;51.420;6.788;2023-02-08T06:59:47;26.67;;;12.33;;
41927;SDS011;27616;51.420;6.788;2023-02-08T07:02:18;26.73;;;13.33;;
41927;SDS011;27616;51.420;6.788;2023-02-08T07:04:45;27.70;;;13.17;;
41927;SDS011;27616;51.420;6.788;2023-02-08T07:07:12;31.03;;;14.33;;
41927;SDS011;27616;51.420;6.788;2023-02-08T07:09:39;34.57;;;17.57;;
41927;SDS011;27616;51.420;6.788;2023-02-08T07:12:05;25.63;;;13.00;;
41927;SDS011;27616;51.420;6.788;2023-02-08T07:14:32;26.77;;;13.60;;
41927;SDS011;27616;51.420;6.788;2023-02-08T07:16:59;26.10;;;14.17;;
41927;SDS011;27616;51.420;6.788;2023-02-08T07:19:26;30.60;;;13.90;;
41927;SDS011;27616;51.420;6.788;2023-02-08T07:21:52;25.10;;;13.13;;
41927;SDS011;27616;51.420;6.788;2023-02-08T07:24:18;26.20;;;13.20;;
41927;SDS011;27616;51.420;6.788;2023-02-08T07:26:44;39.30;;;14.90;;
41927;SDS011;27616;51.420;6.788;2023-02-08T07:29:10;33.37;;;14.90;;
41927;SDS011;27616;51.420;6.788;2023-02-08T07:31:35;28.87;;;14.17;;
41927;SDS011;27616;51.420;6.788;2023-02-08T07:34:01;28.27;;;14.70;;
41927;SDS011;27616;51.420;6.788;2023-02-08T07:36:27;31.40;;;15.43;;
41927;SDS011;27616;51.420;6.788;2023-02-08T07:38:53;31.20;;;14.90;;
41927;SDS011;27616;51.420;6.788;2023-02-08T07:41:18;32.60;;;15.37;;
41927;SDS011;27616;51.420;6.788;2023-02-08T07:43:44;27.63;;;14.07;;
41927;SDS011;27616;51.420;6.788;2023-02-08T07:46:14;29.80;;;14.07;;
41927;SDS011;27616;51.420;6.788;2023-02-08T07:48:42;27.47;;;14.07;;
41927;SDS011;27616;51.420;6.788;2023-02-08T07:51:08;28.13;;;14.03;;
41927;SDS011;27616;51.420;6.788;2023-02-08T07:53:35;28.17;;;13.63;;
41927;SDS011;27616;51.420;6.788;2023-02-08T07:56:01;37.37;;;16.03;;
41927;SDS011;27616;51.420;6.788;2023-02-08T07:58:27;30.33;;;14.80;;
41927;SDS011;27616;51.420;6.788;2023-02-08T08:00:52;28.57;;;15.37;;
41927;SDS011;27616;51.420;6.788;2023-02-08T08:03:18;28.73;;;14.33;;
41927;SDS011;27616;51.420;6.788;2023-02-08T08:05:44;32.97;;;16.10;;
41927;SDS011;27616;51.420;6.788;2023-02-08T08:08:10;33.47;;;15.40;;
41927;SDS011;27616;51.420;6.788;2023-02-08T08:10:37;34.77;;;15.40;;
41927;SDS011;27616;51.420;6.788;2023-02-08T08:13:03;29.30;;;15.10;;
41927;SDS011;27616;51.420;6.788;2023-02-08T08:15:29;27.73;;;15.77;;
41927;SDS011;27616;51.420;6.788;2023-02-08T08:17:54;27.60;;;15.30;;
41927;SDS011;27616;51.420;6.788;2023-02-08T08:20:20;31.73;;;14.87;;
41927;SDS011;27616;51.420;6.788;2023-02-08T08:22:46;33.27;;;16.37;;
41927;SDS011;27616;51.420;6.788;2023-02-08T08:25:12;34.33;;;16.57;;
41927;SDS011;27616;51.420;6.788;2023-02-08T08:27:38;37.20;;;17.13;;
41927;SDS011;27616;51.420;6.788;2023-02-08T08:30:05;28.87;;;16.03;;
41927;SDS011;27616;51.420;6.788;2023-02-08T08:32:36;25.80;;;14.37;;
41927;SDS011;27616;51.420;6.788;2023-02-08T08:35:03;31.93;;;15.67;;
41927;SDS011;27616;51.420;6.788;2023-02-08T08:37:29;26.13;;;14.73;;
41927;SDS011;27616;51.420;6.788;2023-02-08T08:39:55;22.80;;;12.43;;
41927;SDS011;27616;51.420;6.788;2023-02-08T08:42:20;25.40;;;13.23;;
41927;SDS011;27616;51.420;6.788;2023-02-08T08:44:46;23.27;;;12.83;;
41927;SDS011;27616;51.420;6.788;2023-02-08T08:47:12;24.73;;;12.50;;
41927;SDS011;27616;51.420;6.788;2023-02-08T08:49:38;21.00;;;10.43;;
41927;SDS011;27616;51.420;6.788;2023-02-08T08:52:04;18.93;;;9.00;;
41927;SDS011;27616;51.420;6.788;2023-02-08T08:54:32;21.13;;;11.77;;
41927;SDS011;27616;51.420;6.788;2023-02-08T08:56:58;18.63;;;7.50;;
41927;SDS011;27616;51.420;6.788;2023-02-08T08:59:24;18.43;;;8.60;;
41927;SDS011;27616;51.420;6.788;2023-02-08T09:01:50;16.33;;;7.50;;
41927;SDS011;27616;51.420;6.788;2023-02-08T09:04:16;13.90;;;6.50;;
41927;SDS011;27616;51.420;6.788;2023-02-08T09:06:41;15.90;;;7.30;;
41927;SDS011;27616;51.420;6.788;2023-02-08T09:09:07;17.47;;;6.83;;
41927;SDS011;27616;51.420;6.788;2023-02-08T09:11:33;12.43;;;6.17;;
41927;SDS011;27616;51.420;6.788;2023-02-08T09:14:02;12.87;;;6.37;;
41927;SDS011;27616;51.420;6.788;2023-02-08T09:16:29;12.13;;;5.87;;
41927;SDS011;27616;51.420;6.788;2023-02-08T09:18:55;12.27;;;5.90;;
41927;SDS011;27616;51.420;6.788;2023-02-08T09:21:24;10.80;;;5.88;;
41927;SDS011;27616;51.420;6.788;2023-02-08T09:23:49;12.07;;;6.07;;
41927;SDS011;27616;51.420;6.788;2023-02-08T09:26:16;9.17;;;5.20;;
41927;SDS011;27616;51.420;6.788;2023-02-08T09:28:42;11.47;;;6.00;;
41927;SDS011;27616;51.420;6.788;2023-02-08T09:31:09;11.40;;;5.83;;
41927;SDS011;27616;51.420;6.788;2023-02-08T09:33:37;10.55;;;5.95;;
41927;SDS011;27616;51.420;6.788;2023-02-08T09:36:03;14.00;;;6.43;;
41927;SDS011;27616;51.420;6.788;2023-02-08T09:38:30;9.20;;;5.28;;
41927;SDS011;27616;51.420;6.788;2023-02-08T09:43:31;11.35;;;5.63;;
41927;SDS011;27616;51.420;6.788;2023-02-08T09:46:10;10.75;;;5.10;;
41927;SDS011;27616;51.420;6.788;2023-02-08T09:48:41;9.00;;;5.03;;
41927;SDS011;27616;51.420;6.788;2023-02-08T09:54:06;11.20;;;5.57;;
41927;SDS011;27616;51.420;6.788;2023-02-08T09:56:39;10.00;;;5.45;;
41927;SDS011;27616;51.420;6.788;2023-02-08T09:59:11;8.73;;;5.28;;
41927;SDS011;27616;51.420;6.788;2023-02-08T10:01:48;6.72;;;4.70;;
41927;SDS011;27616;51.420;6.788;2023-02-08T10:04:28;9.70;;;5.05;;
41927;SDS011;27616;51.420;6.788;2023-02-08T10:06:58;8.77;;;5.05;;
41927;SDS011;27616;51.420;6.788;2023-02-08T10:09:24;7.95;;;5.15;;
41927;SDS011;27616;51.420;6.788;2023-02-08T10:14:33;11.07;;;5.50;;
41927;SDS011;27616;51.420;6.788;2023-02-08T10:20:35;9.80;;;5.50;;
41927;SDS011;27616;51.420;6.788;2023-02-08T10:23:26;9.15;;;5.63;;
41927;SDS011;27616;51.420;6.788;2023-02-08T10:26:28;8.18;;;4.80;;
41927;SDS011;27616;51.420;6.788;2023-02-08T10:34:59;9.68;;;5.60;;
41927;SDS011;27616;51.420;6.788;2023-02-08T10:37:29;8.38;;;5.03;;
41927;SDS011;27616;51.420;6.788;2023-02-08T10:40:44;10.82;;;5.00;;
41927;SDS011;27616;51.420;6.788;2023-02-08T10:42:56;6.97;;;4.90;;
41927;SDS011;27616;51.420;6.788;2023-02-08T10:45:50;10.60;;;5.43;;
41927;SDS011;27616;51.420;6.788;2023-02-08T10:51:20;7.63;;;4.45;;
41927;SDS011;27616;51.420;6.788;2023-02-08T10:53:46;9.50;;;4.53;;
41927;SDS011;27616;51.420;6.788;2023-02-08T10:59:24;8.50;;;4.90;;
41927;SDS011;27616;51.420;6.788;2023-02-08T11:02:01;7.25;;;4.30;;
41927;SDS011;27616;51.420;6.788;2023-02-08T11:04:35;6.95;;;4.60;;
41927;SDS011;27616;51.420;6.788;2023-02-08T11:07:44;10.38;;;4.20;;
41927;SDS011;27616;51.420;6.788;2023-02-08T11:12:59;7.43;;;4.55;;
41927;SDS011;27616;51.420;6.788;2023-02-08T11:15:36;6.32;;;4.38;;
41927;SDS011;27616;51.420;6.788;2023-02-08T11:18:02;6.88;;;4.35;;
41927;SDS011;27616;51.420;6.788;2023-02-08T11:20:34;5.97;;;3.83;;
41927;SDS011;27616;51.420;6.788;2023-02-08T11:23:04;5.72;;;3.95;;
41927;SDS011;27616;51.420;6.788;2023-02-08T11:25:43;11.27;;;4.60;;
41927;SDS011;27616;51.420;6.788;2023-02-08T11:28:22;5.30;;;3.70;;
41927;SDS011;27616;51.420;6.788;2023-02-08T11:30:54;8.25;;;4.05;;
41927;SDS011;27616;51.420;6.788;2023-02-08T11:33:28;5.90;;;3.50;;
41927;SDS011;27616;51.420;6.788;2023-02-08T11:36:01;6.63;;;3.95;;
41927;SDS011;27616;51.420;6.788;2023-02-08T11:38:30;6.40;;;3.80;;
41927;SDS011;27616;51.420;6.788;2023-02-08T11:40:59;5.13;;;3.50;;
41927;SDS011;27616;51.420;6.788;2023-02-08T11:43:32;5.93;;;3.80;;
41927;SDS011;27616;51.420;6.788;2023-02-08T11:46:00;5.65;;;3.47;;
41927;SDS011;27616;51.420;6.788;2023-02-08T11:51:02;5.13;;;3.22;;
41927;SDS011;27616;51.420;6.788;2023-02-08T11:56:02;5.75;;;3.13;;
41927;SDS011;27616;51.420;6.788;2023-02-08T11:58:30;5.18;;;2.92;;
41927;SDS011;27616;51.420;6.788;2023-02-08T12:00:58;5.00;;;3.55;;
41927;SDS011;27616;51.420;6.788;2023-02-08T12:03:34;6.18;;;3.30;;
41927;SDS011;27616;51.420;6.788;2023-02-08T12:11:02;6.03;;;3.10;;
41927;SDS011;27616;51.420;6.788;2023-02-08T12:22:05;4.15;;;2.50;;
41927;SDS011;27616;51.420;6.788;2023-02-08T12:27:38;6.53;;;3.40;;
41927;SDS011;27616;51.420;6.788;2023-02-08T12:30:30;4.60;;;3.10;;
41927;SDS011;27616;51.420;6.788;2023-02-08T12:33:45;6.70;;;2.92;;
41927;SDS011;27616;51.420;6.788;2023-02-08T12:52:47;4.10;;;2.60;;
41927;SDS011;27616;51.420;6.788;2023-02-08T12:55:30;4.95;;;3.00;;
41927;SDS011;27616;51.420;6.788;2023-02-08T13:00:46;5.47;;;2.78;;
41927;SDS011;27616;51.420;6.788;2023-02-08T13:06:04;3.72;;;2.85;;
41927;SDS011;27616;51.420;6.788;2023-02-08T13:11:21;3.70;;;2.70;;
41927;SDS011;27616;51.420;6.788;2023-02-08T13:14:05;4.82;;;2.85;;
41927;SDS011;27616;51.420;6.788;2023-02-08T13:16:58;4.25;;;2.85;;
41927;SDS011;27616;51.420;6.788;2023-02-08T13:22:22;5.32;;;2.88;;
41927;SDS011;27616;51.420;6.788;2023-02-08T13:24:49;4.63;;;2.58;;
41927;SDS011;27616;51.420;6.788;2023-02-08T13:27:18;4.13;;;2.85;;
41927;SDS011;27616;51.420;6.788;2023-02-08T13:32:14;4.28;;;2.70;;
41927;SDS011;27616;51.420;6.788;2023-02-08T13:37:41;5.95;;;2.47;;
41927;SDS011;27616;51.420;6.788;2023-02-08T13:42:56;4.53;;;2.60;;
41927;SDS011;27616;51.420;6.788;2023-02-08T13:48:02;3.63;;;2.90;;
41927;SDS011;27616;51.420;6.788;2023-02-08T13:53:18;4.15;;;2.65;;
41927;SDS011;27616;51.420;6.788;2023-02-08T13:56:10;3.40;;;2.47;;
41927;SDS011;27616;51.420;6.788;2023-02-08T14:06:31;4.53;;;2.55;;
41927;SDS011;27616;51.420;6.788;2023-02-08T14:09:05;4.50;;;2.50;;
41927;SDS011;27616;51.420;6.788;2023-02-08T14:11:43;4.43;;;2.58;;
41927;SDS011;27616;51.420;6.788;2023-02-08T14:16:45;5.75;;;2.50;;
41927;SDS011;27616;51.420;6.788;2023-02-08T14:19:35;3.58;;;2.33;;
41927;SDS011;27616;51.420;6.788;2023-02-08T14:22:04;4.55;;;2.33;;
41927;SDS011;27616;51.420;6.788;2023-02-08T14:27:25;4.07;;;2.60;;
41927;SDS011;27616;51.420;6.788;2023-02-08T14:32:41;4.88;;;2.53;;
41927;SDS011;27616;51.420;6.788;2023-02-08T14:35:27;3.72;;;2.22;;
41927;SDS011;27616;51.420;6.788;2023-02-08T14:45:56;4.30;;;2.70;;
41927;SDS011;27616;51.420;6.788;2023-02-08T14:48:47;4.45;;;2.53;;
41927;SDS011;27616;51.420;6.788;2023-02-08T14:59:06;7.33;;;3.97;;
41927;SDS011;27616;51.420;6.788;2023-02-08T15:04:05;5.20;;;2.20;;
41927;SDS011;27616;51.420;6.788;2023-02-08T15:09:03;6.67;;;3.10;;
41927;SDS011;27616;51.420;6.788;2023-02-08T15:11:36;7.53;;;4.00;;
41927;SDS011;27616;51.420;6.788;2023-02-08T15:14:03;6.50;;;3.37;;
41927;SDS011;27616;51.420;6.788;2023-02-08T15:16:40;6.67;;;3.23;;
41927;SDS011;27616;51.420;6.788;2023-02-08T15:19:07;6.27;;;2.93;;
41927;SDS011;27616;51.420;6.788;2023-02-08T15:21:42;5.77;;;3.00;;
41927;SDS011;27616;51.420;6.788;2023-02-08T15:24:15;7.00;;;3.40;;
41927;SDS011;27616;51.420;6.788;2023-02-08T15:26:44;4.60;;;2.47;;
41927;SDS011;27616;51.420;6.788;2023-02-08T15:29:25;6.60;;;3.23;;
41927;SDS011;27616;51.420;6.788;2023-02-08T15:31:52;7.03;;;3.00;;
41927;SDS011;27616;51.420;6.788;2023-02-08T15:34:19;27.20;;;11.67;;
41927;SDS011;27616;51.420;6.788;2023-02-08T15:41:56;9.77;;;3.00;;
41927;SDS011;27616;51.420;6.788;2023-02-08T15:44:26;7.27;;;2.50;;
41927;SDS011;27616;51.420;6.788;2023-02-08T15:46:55;6.00;;;2.53;;
41927;SDS011;27616;51.420;6.788;2023-02-08T15:49:29;7.30;;;3.10;;
41927;SDS011;27616;51.420;6.788;2023-02-08T15:51:57;5.17;;;2.70;;
41927;SDS011;27616;51.420;6.788;2023-02-08T15:54:24;8.90;;;3.07;;
41927;SDS011;27616;51.420;6.788;2023-02-08T15:56:52;5.80;;;2.50;;
41927;SDS011;27616;51.420;6.788;2023-02-08T15:59:24;5.57;;;2.53;;
41927;SDS011;27616;51.420;6.788;2023-02-08T16:01:57;6.90;;;2.90;;
41927;SDS011;27616;51.420;6.788;2023-02-08T16:04:28;7.43;;;2.93;;
41927;SDS011;27616;51.420;6.788;2023-02-08T16:06:54;8.03;;;3.67;;
41927;SDS011;27616;51.420;6.788;2023-02-08T16:09:24;5.88;;;3.05;;
41927;SDS011;27616;51.420;6.788;2023-02-08T16:11:52;9.82;;;3.05;;
41927;SDS011;27616;51.420;6.788;2023-02-08T16:16:49;7.67;;;3.50;;
41927;SDS011;27616;51.420;6.788;2023-02-08T16:21:59;10.50;;;4.43;;
41927;SDS011;27616;51.420;6.788;2023-02-08T16:24:45;9.47;;;3.83;;
41927;SDS011;27616;51.420;6.788;2023-02-08T16:29:50;13.80;;;4.63;;
41927;SDS011;27616;51.420;6.788;2023-02-08T16:34:51;12.33;;;5.57;;
41927;SDS011;27616;51.420;6.788;2023-02-08T16:37:38;14.93;;;6.63;;
41927;SDS011;27616;51.420;6.788;2023-02-08T16:40:28;10.83;;;4.60;;
41927;SDS011;27616;51.420;6.788;2023-02-08T16:48:45;10.93;;;4.80;;
41927;SDS011;27616;51.420;6.788;2023-02-08T16:53:54;9.03;;;4.07;;
41927;SDS011;27616;51.420;6.788;2023-02-08T16:56:21;10.80;;;4.57;;
41927;SDS011;27616;51.420;6.788;2023-02-08T16:58:48;12.73;;;4.57;;
41927;SDS011;27616;51.420;6.788;2023-02-08T17:01:14;9.90;;;4.87;;
41927;SDS011;27616;51.420;6.788;2023-02-08T17:03:40;11.73;;;4.23;;
41927;SDS011;27616;51.420;6.788;2023-02-08T17:06:06;8.33;;;4.30;;
41927;SDS011;27616;51.420;6.788;2023-02-08T17:08:42;7.40;;;3.60;;
41927;SDS011;27616;51.420;6.788;2023-02-08T17:11:08;7.00;;;3.13;;
41927;SDS011;27616;51.420;6.788;2023-02-08T17:13:34;8.30;;;3.47;;
41927;SDS011;27616;51.420;6.788;2023-02-08T17:15:59;7.20;;;3.50;;
41927;SDS011;27616;51.420;6.788;2023-02-08T17:18:25;7.60;;;3.43;;
41927;SDS011;27616;51.420;6.788;2023-02-08T17:20:52;7.17;;;3.10;;
41927;SDS011;27616;51.420;6.788;2023-02-08T17:23:23;8.13;;;2.77;;
41927;SDS011;27616;51.420;6.788;2023-02-08T17:25:49;9.17;;;3.27;;
41927;SDS011;27616;51.420;6.788;2023-02-08T17:28:17;15.07;;;6.07;;
41927;SDS011;27616;51.420;6.788;2023-02-08T17:30:44;8.23;;;2.87;;
41927;SDS011;27616;51.420;6.788;2023-02-08T17:33:11;8.20;;;3.43;;
41927;SDS011;27616;51.420;6.788;2023-02-08T17:35:42;8.77;;;4.97;;
41927;SDS011;27616;51.420;6.788;2023-02-08T17:38:10;14.00;;;7.10;;
41927;SDS011;27616;51.420;6.788;2023-02-08T17:40:37;11.27;;;5.10;;
41927;SDS011;27616;51.420;6.788;2023-02-08T17:43:04;13.87;;;6.87;;
41927;SDS011;27616;51.420;6.788;2023-02-08T17:45:30;12.57;;;6.20;;
41927;SDS011;27616;51.420;6.788;2023-02-08T17:47:59;12.97;;;5.83;;
41927;SDS011;27616;51.420;6.788;2023-02-08T17:50:25;14.47;;;6.40;;
41927;SDS011;27616;51.420;6.788;2023-02-08T17:52:51;14.90;;;6.30;;
41927;SDS011;27616;51.420;6.788;2023-02-08T17:55:17;15.10;;;6.50;;
41927;SDS011;27616;51.420;6.788;2023-02-08T17:57:43;12.43;;;6.30;;